Time,TemperatureF,DewpointF,PressureIn,WindDirection,WindDirectionDegrees,WindSpeedMPH,WindSpeedGustMPH,Humidity,HourlyPrecipIn,Conditions,Clouds,dailyrainin,SoftwareType,DateUTC
2013-07-10 00:01:00,55.0,49.0,29.36,SW,235,0.0,3.0,79,0.00,,,0.02,,2013-07-10 08:01:00,
2013-07-10 00:11:00,55.0,49.0,29.37,WSW,237,0.0,3.0,80,0.00,,,0.02,,2013-07-10 08:11:00,
2013-07-10 00:22:00,55.0,49.0,29.37,WSW,237,0.0,3.0,80,0.00,,,0.02,,2013-07-10 08:22:00,
2013-07-10 00:32:00,55.0,49.0,29.36,West,262,0.0,0.0,79,0.00,,,0.02,,2013-07-10 08:32:00,
2013-07-10 00:42:00,55.0,49.0,29.36,SW,218,0.0,1.0,79,0.00,,,0.02,,2013-07-10 08:42:00,
2013-07-10 00:53:00,55.0,49.0,29.36,SW,218,0.0,1.0,79,0.00,,,0.02,,2013-07-10 08:53:00,
2013-07-10 01:02:00,54.0,48.0,29.37,SW,214,0.0,3.0,80,0.00,,,0.02,,2013-07-10 09:02:00,
2013-07-10 01:12:00,54.0,48.0,29.37,SW,214,0.0,3.0,80,0.00,,,0.02,,2013-07-10 09:12:00,
2013-07-10 01:21:00,54.0,48.0,29.37,SW,214,0.0,3.0,80,0.00,,,0.02,,2013-07-10 09:21:00,
2013-07-10 01:32:00,54.0,48.0,29.37,West,281,0.0,3.0,81,0.00,,,0.02,,2013-07-10 09:32:00,
2013-07-10 01:42:00,54.0,49.0,29.38,West,269,0.0,3.0,82,0.00,,,0.02,,2013-07-10 09:42:00,
2013-07-10 01:52:00,54.0,49.0,29.38,West,269,0.0,3.0,82,0.00,,,0.02,,2013-07-10 09:52:00,
2013-07-10 02:01:00,54.0,49.0,29.38,WSW,240,0.0,3.0,82,0.00,,,0.01,,2013-07-10 10:01:00,
2013-07-10 02:13:00,54.0,49.0,29.38,WSW,240,0.0,3.0,82,0.00,,,0.01,,2013-07-10 10:13:00,
2013-07-10 02:23:00,53.0,48.0,29.38,West,278,0.0,3.0,83,0.00,,,0.01,,2013-07-10 10:23:00,
2013-07-10 02:32:00,53.0,48.0,29.38,South,177,0.0,3.0,83,0.00,,,0.01,,2013-07-10 10:32:00,
2013-07-10 02:50:00,-999.0,-99.9,29.38,WSW,243,0.0,3.0,-999,-99.99,,,-99.99,,2013-07-10 10:50:00,
2013-07-10 03:00:00,-999.0,-99.9,29.38,WSW,243,0.0,3.0,-999,-99.99,,,-99.99,,2013-07-10 11:00:00,
2013-07-10 03:11:00,53.0,48.0,29.37,WSW,238,0.0,3.0,84,0.00,,,0.01,,2013-07-10 11:11:00,
2013-07-10 03:22:00,53.0,48.0,29.37,WSW,238,0.0,3.0,84,0.00,,,0.01,,2013-07-10 11:22:00,
2013-07-10 03:33:00,53.0,48.0,29.37,SW,224,0.0,3.0,84,0.00,,,0.01,,2013-07-10 11:33:00,
2013-07-10 03:43:00,53.0,48.0,29.38,WSW,248,0.0,3.0,84,0.00,,,0.01,,2013-07-10 11:43:00,
2013-07-10 03:52:00,53.0,48.0,29.38,WSW,248,0.0,3.0,84,0.00,,,0.01,,2013-07-10 11:52:00,
2013-07-10 04:01:00,52.0,48.0,29.37,WSW,246,0.0,3.0,85,0.00,,,0.01,,2013-07-10 12:01:00,
2013-07-10 04:11:00,52.0,48.0,29.37,West,278,0.0,3.0,86,0.00,,,0.01,,2013-07-10 12:11:00,
2013-07-10 04:22:00,52.0,48.0,29.37,West,278,0.0,3.0,86,0.00,,,0.01,,2013-07-10 12:22:00,
2013-07-10 04:33:00,52.0,48.0,29.37,West,278,0.0,3.0,86,0.00,,,0.01,,2013-07-10 12:33:00,
2013-07-10 04:42:00,52.0,49.0,29.37,SSW,206,0.0,3.0,88,0.02,,,0.03,,2013-07-10 12:42:00,
2013-07-10 05:01:00,52.0,49.0,29.37,SW,225,0.0,3.0,88,0.03,,,0.04,,2013-07-10 13:01:00,
2013-07-10 05:11:00,52.0,49.0,29.37,SW,225,0.0,3.0,88,0.03,,,0.04,,2013-07-10 13:11:00,
2013-07-10 05:21:00,52.0,49.0,29.37,SW,225,0.0,3.0,89,0.04,,,0.05,,2013-07-10 13:21:00,
2013-07-10 05:32:00,51.0,48.0,29.37,SW,225,0.0,3.0,89,0.06,,,0.07,,2013-07-10 13:32:00,
2013-07-10 05:42:00,51.0,48.0,29.37,SW,226,0.0,3.0,90,0.06,,,0.09,,2013-07-10 13:42:00,
2013-07-10 05:52:00,51.0,48.0,29.37,SW,226,0.0,3.0,90,0.06,,,0.09,,2013-07-10 13:52:00,
2013-07-10 06:01:00,51.0,48.0,29.37,West,281,0.0,3.0,90,0.06,,,0.10,,2013-07-10 14:01:00,
2013-07-10 06:11:00,51.0,48.0,29.37,West,277,0.0,3.0,91,0.08,,,0.13,,2013-07-10 14:11:00,
2013-07-10 06:22:00,51.0,48.0,29.37,West,277,0.0,3.0,91,0.08,,,0.13,,2013-07-10 14:22:00,
2013-07-10 06:33:00,51.0,48.0,29.37,SW,214,0.0,3.0,91,0.08,,,0.15,,2013-07-10 14:33:00,
2013-07-10 06:43:00,51.0,48.0,29.37,NW,317,0.0,3.0,91,0.09,,,0.18,,2013-07-10 14:43:00,
2013-07-10 06:53:00,51.0,48.0,29.37,NW,317,0.0,3.0,91,0.09,,,0.18,,2013-07-10 14:53:00,
2013-07-10 07:22:00,51.0,49.0,29.36,WSW,254,0.0,3.0,92,0.10,,,0.23,,2013-07-10 15:22:00,
2013-07-10 07:34:00,51.0,49.0,29.36,West,271,0.0,3.0,92,0.09,,,0.24,,2013-07-10 15:34:00,
2013-07-10 07:42:00,51.0,49.0,29.35,WSW,249,0.0,3.0,92,0.07,,,0.25,,2013-07-10 15:42:00,
2013-07-10 07:52:00,51.0,49.0,29.35,WSW,249,0.0,3.0,92,0.07,,,0.25,,2013-07-10 15:52:00,
2013-07-10 08:01:00,51.0,49.0,29.35,South,189,0.0,3.0,92,0.06,,,0.27,,2013-07-10 16:01:00,
2013-07-10 08:11:00,51.0,49.0,29.35,South,189,0.0,3.0,92,0.06,,,0.27,,2013-07-10 16:11:00,
2013-07-10 08:22:00,51.0,49.0,29.34,SSW,205,0.0,3.0,92,0.05,,,0.28,,2013-07-10 16:22:00,
2013-07-10 08:33:00,51.0,49.0,29.34,SSW,206,0.0,3.0,92,0.05,,,0.29,,2013-07-10 16:33:00,
2013-07-10 08:44:00,51.0,49.0,29.34,West,264,0.0,3.0,92,0.04,,,0.29,,2013-07-10 16:44:00,
2013-07-10 08:52:00,51.0,49.0,29.34,West,264,0.0,3.0,92,0.04,,,0.29,,2013-07-10 16:52:00,
2013-07-10 09:01:00,51.0,49.0,29.35,West,264,0.0,3.0,93,0.02,,,0.29,,2013-07-10 17:01:00,
2013-07-10 09:11:00,52.0,50.0,29.35,North,0,0.0,3.0,93,0.02,,,0.30,,2013-07-10 17:11:00,
2013-07-10 09:32:00,52.0,50.0,29.35,WSW,241,0.0,3.0,93,0.02,,,0.31,,2013-07-10 17:32:00,
2013-07-10 09:42:00,51.0,49.0,29.35,WSW,241,0.0,3.0,92,0.02,,,0.31,,2013-07-10 17:42:00,
2013-07-10 09:52:00,51.0,49.0,29.35,WSW,241,0.0,3.0,92,0.02,,,0.31,,2013-07-10 17:52:00,
2013-07-10 10:01:00,51.0,49.0,29.36,WSW,241,0.0,3.0,92,0.03,,,0.32,,2013-07-10 18:01:00,
2013-07-10 10:11:00,51.0,49.0,29.35,WSW,241,0.0,3.0,92,0.02,,,0.32,,2013-07-10 18:11:00,
2013-07-10 10:21:00,51.0,49.0,29.35,WSW,241,0.0,3.0,92,0.02,,,0.32,,2013-07-10 18:21:00,
2013-07-10 10:32:00,51.0,49.0,29.35,WSW,241,0.0,3.0,92,0.01,,,0.32,,2013-07-10 18:32:00,
2013-07-10 10:44:00,52.0,50.0,29.35,WSW,241,0.0,3.0,92,0.01,,,0.32,,2013-07-10 18:44:00,
2013-07-10 10:52:00,52.0,50.0,29.35,WSW,241,0.0,3.0,92,0.01,,,0.32,,2013-07-10 18:52:00,
2013-07-10 11:01:00,52.0,50.0,29.35,WSW,241,0.0,3.0,92,0.01,,,0.32,,2013-07-10 19:01:00,
2013-07-10 11:11:00,52.0,49.0,29.35,WSW,241,0.0,3.0,91,0.00,,,0.32,,2013-07-10 19:11:00,
2013-07-10 11:21:00,52.0,49.0,29.35,WSW,241,0.0,3.0,91,0.00,,,0.32,,2013-07-10 19:21:00,
2013-07-10 11:32:00,52.0,49.0,29.35,SSW,200,0.0,3.0,91,0.00,,,0.32,,2013-07-10 19:32:00,
2013-07-10 11:42:00,53.0,50.0,29.35,West,274,0.0,3.0,90,0.00,,,0.32,,2013-07-10 19:42:00,
2013-07-10 11:52:00,53.0,50.0,29.35,West,274,0.0,3.0,90,0.00,,,0.32,,2013-07-10 19:52:00,
2013-07-10 12:01:00,53.0,50.0,29.35,WNW,289,0.0,3.0,88,0.00,,,0.32,,2013-07-10 20:01:00,
2013-07-10 12:11:00,53.0,49.0,29.35,WNW,296,0.0,3.0,87,0.00,,,0.32,,2013-07-10 20:11:00,
2013-07-10 12:22:00,53.0,49.0,29.35,WNW,296,0.0,3.0,87,0.00,,,0.32,,2013-07-10 20:22:00,
2013-07-10 12:32:00,53.0,49.0,29.35,WNW,296,0.0,3.0,86,0.00,,,0.32,,2013-07-10 20:32:00,
2013-07-10 12:42:00,53.0,48.0,29.35,West,276,0.0,3.0,82,0.00,,,0.32,,2013-07-10 20:42:00,
2013-07-10 12:52:00,53.0,48.0,29.35,West,276,0.0,3.0,82,0.00,,,0.32,,2013-07-10 20:52:00,
2013-07-10 13:01:00,53.0,48.0,29.36,West,276,0.0,3.0,84,0.00,,,0.32,,2013-07-10 21:01:00,
2013-07-10 13:11:00,54.0,49.0,29.35,West,276,0.0,3.0,82,0.00,,,0.32,,2013-07-10 21:11:00,
2013-07-10 13:21:00,54.0,49.0,29.35,West,276,0.0,3.0,82,0.00,,,0.32,,2013-07-10 21:21:00,
2013-07-10 13:32:00,54.0,49.0,29.36,West,276,0.0,3.0,83,0.00,,,0.32,,2013-07-10 21:32:00,
2013-07-10 13:41:00,54.0,49.0,29.36,West,276,0.0,3.0,83,0.00,,,0.32,,2013-07-10 21:41:00,
2013-07-10 13:52:00,54.0,49.0,29.36,West,276,0.0,3.0,83,0.00,,,0.32,,2013-07-10 21:52:00,
2013-07-10 14:01:00,54.0,49.0,29.36,West,276,0.0,3.0,84,0.00,,,0.32,,2013-07-10 22:01:00,
2013-07-10 14:11:00,54.0,49.0,29.36,West,276,0.0,3.0,84,0.00,,,0.32,,2013-07-10 22:11:00,
2013-07-10 14:21:00,54.0,49.0,29.36,West,276,0.0,3.0,84,0.00,,,0.32,,2013-07-10 22:21:00,
2013-07-10 14:33:00,55.0,50.0,29.36,SW,232,0.0,3.0,82,0.00,,,0.32,,2013-07-10 22:33:00,
2013-07-10 14:42:00,55.0,49.0,29.37,WSW,252,0.0,3.0,79,0.00,,,0.32,,2013-07-10 22:42:00,
2013-07-10 15:01:00,55.0,49.0,29.37,SSE,157,0.0,3.0,81,0.00,,,0.32,,2013-07-10 23:01:00,
2013-07-10 15:11:00,55.0,50.0,29.38,SSE,157,0.0,3.0,83,0.00,,,0.32,,2013-07-10 23:11:00,
2013-07-10 15:21:00,55.0,50.0,29.38,SSE,157,0.0,3.0,83,0.00,,,0.32,,2013-07-10 23:21:00,
2013-07-10 15:32:00,55.0,50.0,29.38,SSE,157,0.0,3.0,82,0.00,,,0.32,,2013-07-10 23:32:00,
2013-07-10 15:42:00,55.0,50.0,29.38,SSE,157,0.0,3.0,82,0.00,,,0.32,,2013-07-10 23:42:00,
2013-07-10 15:52:00,55.0,50.0,29.38,SSE,157,0.0,3.0,82,0.00,,,0.32,,2013-07-10 23:52:00,
2013-07-10 16:01:00,55.0,50.0,29.38,SSE,157,0.0,3.0,82,0.00,,,0.32,,2013-07-11 00:01:00,
2013-07-10 16:11:00,55.0,50.0,29.38,SSE,157,0.0,3.0,82,0.00,,,0.32,,2013-07-11 00:11:00,
2013-07-10 16:22:00,55.0,49.0,29.38,SSE,157,0.0,3.0,81,0.00,,,0.32,,2013-07-11 00:22:00,
2013-07-10 16:32:00,55.0,50.0,29.39,NNW,345,0.0,3.0,82,0.00,,,0.32,,2013-07-11 00:32:00,
2013-07-10 16:42:00,55.0,50.0,29.39,NNW,345,0.0,3.0,82,0.00,,,0.32,,2013-07-11 00:42:00,
2013-07-10 16:52:00,55.0,49.0,29.39,NNW,338,0.0,3.0,81,0.00,,,0.32,,2013-07-11 00:52:00,
2013-07-10 17:01:00,55.0,49.0,29.39,WNW,288,0.0,3.0,80,0.00,,,0.32,,2013-07-11 01:01:00,
2013-07-10 17:11:00,55.0,49.0,29.39,WNW,288,0.0,3.0,80,0.00,,,0.32,,2013-07-11 01:11:00,
2013-07-10 17:22:00,55.0,49.0,29.39,WNW,288,0.0,3.0,80,0.00,,,0.32,,2013-07-11 01:22:00,
2013-07-10 17:32:00,55.0,49.0,29.39,WNW,288,0.0,3.0,80,0.00,,,0.32,,2013-07-11 01:32:00,
2013-07-10 17:43:00,56.0,49.0,29.39,WNW,283,0.0,3.0,78,0.00,,,0.32,,2013-07-11 01:43:00,
2013-07-10 17:52:00,56.0,49.0,29.39,WNW,283,0.0,3.0,78,0.00,,,0.32,,2013-07-11 01:52:00,
2013-07-10 18:01:00,56.0,49.0,29.38,SSW,195,0.0,3.0,77,0.00,,,0.32,,2013-07-11 02:01:00,
2013-07-10 18:11:00,56.0,49.0,29.38,SSW,195,0.0,3.0,77,0.00,,,0.32,,2013-07-11 02:11:00,
2013-07-10 18:22:00,56.0,49.0,29.39,West,275,0.0,3.0,77,0.00,,,0.32,,2013-07-11 02:22:00,
2013-07-10 18:32:00,55.0,48.0,29.39,SW,230,0.0,3.0,77,0.00,,,0.32,,2013-07-11 02:32:00,
2013-07-10 18:43:00,55.0,49.0,29.39,South,170,0.0,3.0,79,0.00,,,0.32,,2013-07-11 02:43:00,
2013-07-10 18:53:00,55.0,49.0,29.39,South,170,0.0,3.0,79,0.00,,,0.32,,2013-07-11 02:53:00,
2013-07-10 19:01:00,55.0,49.0,29.39,South,170,0.0,3.0,80,0.00,,,0.32,,2013-07-11 03:01:00,
2013-07-10 19:11:00,55.0,49.0,29.40,South,170,0.0,3.0,81,0.00,,,0.31,,2013-07-11 03:11:00,
2013-07-10 19:21:00,55.0,49.0,29.40,South,170,0.0,3.0,81,0.00,,,0.31,,2013-07-11 03:21:00,
2013-07-10 19:33:00,55.0,50.0,29.39,South,170,0.0,3.0,84,0.01,,,0.32,,2013-07-11 03:33:00,
2013-07-10 19:42:00,54.0,50.0,29.40,South,170,0.0,3.0,85,0.01,,,0.32,,2013-07-11 03:42:00,
2013-07-10 19:52:00,54.0,50.0,29.40,South,170,0.0,3.0,85,0.01,,,0.32,,2013-07-11 03:52:00,
2013-07-10 20:01:00,54.0,50.0,29.40,South,170,0.0,3.0,86,0.01,,,0.32,,2013-07-11 04:01:00,
2013-07-10 20:11:00,54.0,50.0,29.40,South,170,0.0,3.0,87,0.01,,,0.32,,2013-07-11 04:11:00,
2013-07-10 20:22:00,54.0,50.0,29.40,South,170,0.0,3.0,87,0.01,,,0.32,,2013-07-11 04:22:00,
2013-07-10 20:32:00,53.0,49.0,29.40,South,170,0.0,3.0,87,0.02,,,0.34,,2013-07-11 04:32:00,
2013-07-10 20:42:00,53.0,50.0,29.41,South,170,0.0,3.0,88,0.02,,,0.34,,2013-07-11 04:42:00,
2013-07-10 21:01:00,53.0,50.0,29.41,South,170,0.0,3.0,89,0.03,,,0.35,,2013-07-11 05:01:00,
2013-07-10 21:11:00,53.0,50.0,29.41,South,170,0.0,3.0,89,0.03,,,0.35,,2013-07-11 05:11:00,
2013-07-10 21:22:00,53.0,50.0,29.41,South,170,0.0,3.0,89,0.04,,,0.36,,2013-07-11 05:22:00,
2013-07-10 21:32:00,53.0,50.0,29.41,South,170,0.0,3.0,89,0.02,,,0.36,,2013-07-11 05:32:00,
2013-07-10 21:43:00,52.0,49.0,29.41,South,170,0.0,3.0,90,0.03,,,0.37,,2013-07-11 05:43:00,
2013-07-10 21:52:00,52.0,49.0,29.41,South,170,0.0,3.0,90,0.03,,,0.37,,2013-07-11 05:52:00,
2013-07-10 22:01:00,52.0,49.0,29.41,South,170,0.0,3.0,90,0.02,,,0.37,,2013-07-11 06:01:00,
2013-07-10 22:11:00,52.0,49.0,29.41,South,170,0.0,3.0,90,0.01,,,0.37,,2013-07-11 06:11:00,
2013-07-10 22:22:00,52.0,49.0,29.41,South,170,0.0,3.0,90,0.01,,,0.37,,2013-07-11 06:22:00,
2013-07-10 22:32:00,52.0,49.0,29.41,South,170,0.0,3.0,90,0.02,,,0.38,,2013-07-11 06:32:00,
2013-07-10 22:43:00,52.0,49.0,29.42,South,170,0.0,3.0,90,0.01,,,0.38,,2013-07-11 06:43:00,
2013-07-10 23:01:00,52.0,49.0,29.42,South,170,0.0,3.0,90,0.01,,,0.38,,2013-07-11 07:01:00,
2013-07-10 23:12:00,52.0,49.0,29.42,South,170,0.0,3.0,90,0.01,,,0.38,,2013-07-11 07:12:00,
2013-07-10 23:22:00,52.0,49.0,29.42,South,170,0.0,3.0,90,0.01,,,0.38,,2013-07-11 07:22:00,
2013-07-10 23:32:00,52.0,49.0,29.43,South,170,0.0,3.0,91,0.00,,,0.38,,2013-07-11 07:32:00,
2013-07-10 23:45:00,52.0,49.0,29.42,South,170,0.0,3.0,90,0.01,,,0.39,,2013-07-11 07:45:00,
2013-07-10 23:53:00,52.0,49.0,29.42,South,170,0.0,3.0,90,0.01,,,0.39,,2013-07-11 07:53:00,